Big Bear Station Historical Data
Daily Summary for February 14, 2019 Units:  English    Metric   Both
Next Day »
Daily Weekly Monthly Yearly Custom
  High: Low: Average:
Temperature: 43.5 °F 34.7 °F 41 °F
Dew Point: 43.2 °F 34.2 °F 40.7 °F
Humidity: 99% 97% 99%
Wind Speed: 14.0mph 0.0mph 4.3mph
Wind Gust: 25.8mph - -
Wind- - SW
Pressure: 23.35 in 23.16 in -
Precipitation: 6.21 in    
Historical Graphs
 
 
Tabular Data for February 14, 2019
Time Temperature Dew Point Pressure Wind Wind Speed Wind Gust Humidity Rainfall Rate (Hourly)
00:12 39.0 °F 38.7 °F 23.35 in Calm   -999.0 mph 99% 0.00 in
00:27 39.4 °F 39.1 °F 23.34 in Calm   -999.0 mph 99% 0.00 in
00:42 39.4 °F 39.1 °F 23.35 in Calm   -999.0 mph 99% 0.00 in
00:57 39.4 °F 39.1 °F 23.34 in Calm   -999.0 mph 99% 0.00 in
01:13 39.6 °F 39.3 °F 23.34 in Calm   -999.0 mph 99% 0.00 in
01:28 39.4 °F 39.1 °F 23.35 in Calm   -999.0 mph 99% 0.00 in
01:43 39.7 °F 39.4 °F 23.35 in South 3.2 mph -999.0 mph 99% 0.00 in
01:58 40.3 °F 40.0 °F 23.33 in South 3.7 mph -999.0 mph 99% 0.00 in
02:14 40.6 °F 40.3 °F 23.32 in SSW 5.8 mph -999.0 mph 99% 0.00 in
02:29 41.2 °F 40.9 °F 23.31 in South 2.2 mph -999.0 mph 99% 0.00 in
02:44 41.4 °F 41.1 °F 23.29 in North 2.2 mph -999.0 mph 99% 0.00 in
03:00 42.1 °F 41.8 °F 23.30 in Calm   -999.0 mph 99% 0.00 in
03:15 42.1 °F 41.8 °F 23.29 in WNW 5.3 mph -999.0 mph 99% 0.00 in
03:30 41.7 °F 41.4 °F 23.28 in WNW 3.2 mph -999.0 mph 99% 0.00 in
03:46 41.5 °F 41.2 °F 23.28 in NNW 4.7 mph -999.0 mph 99% 0.00 in
04:01 41.9 °F 41.6 °F 23.29 in SSW 7.8 mph -999.0 mph 99% 0.00 in
04:17 41.5 °F 41.2 °F 23.29 in SW 2.2 mph -999.0 mph 99% 0.00 in
04:32 41.5 °F 41.2 °F 23.27 in SSW 2.7 mph -999.0 mph 99% 0.00 in
04:47 41.7 °F 41.4 °F 23.28 in WSW 10.9 mph -999.0 mph 99% 0.00 in
05:02 41.2 °F 40.9 °F 23.28 in SSE 3.7 mph -999.0 mph 99% 0.00 in
05:18 41.5 °F 41.2 °F 23.27 in SE 4.7 mph -999.0 mph 99% 0.00 in
05:33 41.4 °F 41.1 °F 23.26 in NNW 3.7 mph -999.0 mph 99% 0.00 in
05:49 41.4 °F 41.1 °F 23.27 in NNW 9.9 mph -999.0 mph 99% 0.00 in
06:04 42.8 °F 42.5 °F 23.24 in Calm   -999.0 mph 99% 0.00 in
06:19 43.2 °F 42.9 °F 23.23 in SW 4.2 mph 18.1 mph 99% 0.00 in
06:34 43.0 °F 42.7 °F 23.23 in East 7.3 mph -999.0 mph 99% 0.00 in
06:50 42.1 °F 41.8 °F 23.24 in NNW 3.7 mph -999.0 mph 99% 0.00 in
07:05 41.5 °F 41.2 °F 23.25 in SE 7.3 mph -999.0 mph 99% 0.00 in
07:20 41.4 °F 41.1 °F 23.25 in West 6.3 mph -999.0 mph 99% 0.00 in
07:35 41.7 °F 41.4 °F 23.25 in SSE 5.3 mph -999.0 mph 99% 0.00 in
07:51 41.4 °F 41.1 °F 23.25 in South 10.4 mph -999.0 mph 99% 0.00 in
08:06 41.2 °F 40.9 °F 23.25 in West 4.2 mph -999.0 mph 99% 0.00 in
08:21 41.5 °F 41.2 °F 23.25 in SSE 4.2 mph -999.0 mph 99% 0.00 in
08:36 42.6 °F 42.3 °F 23.25 in SSW 6.3 mph -999.0 mph 99% 0.00 in
08:52 42.1 °F 41.8 °F 23.25 in ESE 2.2 mph -999.0 mph 99% 0.00 in
09:07 43.5 °F 43.2 °F 23.24 in South 2.7 mph 25.8 mph 99% 0.00 in
09:22 43.3 °F 43.0 °F 23.24 in South 4.7 mph 19.7 mph 99% 0.00 in
09:38 43.0 °F 42.7 °F 23.25 in SSE 2.2 mph -999.0 mph 99% 0.00 in
09:53 42.6 °F 42.3 °F 23.25 in North 4.2 mph -999.0 mph 99% 0.00 in
10:08 42.6 °F 42.3 °F 23.24 in SE 2.2 mph -999.0 mph 99% 0.00 in
10:23 42.1 °F 41.8 °F 23.25 in ESE 3.7 mph -999.0 mph 99% 0.00 in
10:39 41.9 °F 41.6 °F 23.23 in WNW 5.8 mph -999.0 mph 99% 0.00 in
10:54 41.5 °F 41.0 °F 23.24 in WNW 6.3 mph 20.7 mph 98% 0.00 in
13:45 37.6 °F 36.8 °F 23.18 in West 3.2 mph -999.0 mph 97% 0.00 in
14:01 36.9 °F 36.4 °F 23.18 in ENE 6.8 mph 18.6 mph 98% 0.00 in
14:16 35.8 °F 35.3 °F 23.16 in North 14.0 mph -999.0 mph 98% 0.00 in
14:32 34.7 °F 34.2 °F 23.17 in SSE 6.8 mph -999.0 mph 98% 0.00 in
Big Bear CA Weather